Home Latest Filings Latest Buys Latest Sells Institutions Derivatives Hot Buys Data Screener Email Alerts Insider Charts
TPL - As of  09/27/20, 03:07:16 AM:   355 Insider Transactions.

Sector: Financial    Industry: Real Estate Development
Prev Close:$169.99  Avg Vol(3m): 9,092  P/E: 39.40  EPS: 4.31

Email this page to a friend.    Institutional Transactions for TPL

                Buy: Blue    Sell: Red
Non-meaningful transactions (gifts, grants, etc.) are automatically filtered out for quicker actions.
Buy(P) /
Sell(S)
P/S date Filed Date Company Symbol Insider Relationship Share Amt. Unit Price Total Proceeds Shares Owned Return(1m) Details
P 2020-09-24 2020-09-25 11:33:01.0 TEXAS PACIFIC LAND TRUST TPL HORIZON KINETICS ASSET MANAGEMENT LLC 10% owner 14 $457.02 $6,398.28 276,929 view
P 2020-09-23 2020-09-24 11:49:50.0 TEXAS PACIFIC LAND TRUST TPL HORIZON KINETICS ASSET MANAGEMENT LLC 10% owner 14 $441.70 $6,183.80 276,915 view
P 2020-09-22 2020-09-23 11:42:42.0 TEXAS PACIFIC LAND TRUST TPL HORIZON KINETICS ASSET MANAGEMENT LLC 10% owner 14 $461.00 $6,454.00 276,901 view
P 2020-09-21 2020-09-22 11:46:24.0 TEXAS PACIFIC LAND TRUST TPL HORIZON KINETICS ASSET MANAGEMENT LLC 10% owner 14 $459.56 $6,433.84 276,887 view
P 2020-09-18 2020-09-21 11:44:52.0 TEXAS PACIFIC LAND TRUST TPL HORIZON KINETICS ASSET MANAGEMENT LLC 10% owner 14 $457.99 $6,411.86 276,873 view
P 2020-09-17 2020-09-18 12:43:28.0 TEXAS PACIFIC LAND TRUST TPL HORIZON KINETICS ASSET MANAGEMENT LLC 10% owner 14 $459.42 $6,431.88 276,859 view
P 2020-09-16 2020-09-17 13:43:04.0 TEXAS PACIFIC LAND TRUST TPL HORIZON KINETICS ASSET MANAGEMENT LLC 10% owner 4 $458.56 $1,834.24 276,845 view
P 2020-09-10 2020-09-11 11:46:47.0 TEXAS PACIFIC LAND TRUST TPL HORIZON KINETICS ASSET MANAGEMENT LLC 10% owner 5 $481.00 $2,405.00 276,841 view
P 2020-09-08 2020-09-09 16:31:50.0 TEXAS PACIFIC LAND TRUST TPL HORIZON KINETICS ASSET MANAGEMENT LLC 10% owner 14 $494.03 $6,916.42 276,836 view
P 2020-09-04 2020-09-08 13:02:09.0 TEXAS PACIFIC LAND TRUST TPL HORIZON KINETICS ASSET MANAGEMENT LLC 10% owner 14 $510.69 $7,149.66 276,822 view
P 2020-09-03 2020-09-04 11:56:10.0 TEXAS PACIFIC LAND TRUST TPL HORIZON KINETICS ASSET MANAGEMENT LLC 10% owner 14 $527.32 $7,382.48 276,808 view
P 2020-09-02 2020-09-03 11:23:58.0 TEXAS PACIFIC LAND TRUST TPL HORIZON KINETICS ASSET MANAGEMENT LLC 10% owner 14 $537.80 $7,529.20 276,794 view
P 2020-09-01 2020-09-02 11:20:22.0 TEXAS PACIFIC LAND TRUST TPL HORIZON KINETICS ASSET MANAGEMENT LLC 10% owner 14 $536.72 $7,514.08 276,780 view
P 2020-08-31 2020-09-01 11:34:51.0 TEXAS PACIFIC LAND TRUST TPL HORIZON KINETICS ASSET MANAGEMENT LLC 10% owner 12 $526.72 $6,320.64 276,766 view
P 2020-08-28 2020-08-31 12:37:26.0 TEXAS PACIFIC LAND TRUST TPL HORIZON KINETICS ASSET MANAGEMENT LLC 10% owner 12 $531.59 $6,379.08 276,754 view
P 2020-08-27 2020-08-28 11:42:16.0 TEXAS PACIFIC LAND TRUST TPL HORIZON KINETICS ASSET MANAGEMENT LLC 10% owner 12 $537.74 $6,452.88 276,742 view
P 2020-08-26 2020-08-27 12:09:01.0 TEXAS PACIFIC LAND TRUST TPL HORIZON KINETICS ASSET MANAGEMENT LLC 10% owner 12 $542.78 $6,513.36 276,730 view
P 2020-08-25 2020-08-26 12:37:39.0 TEXAS PACIFIC LAND TRUST TPL HORIZON KINETICS ASSET MANAGEMENT LLC 10% owner 44 $545.14 $23,986.20 276,718 view
P 2020-08-24 2020-08-25 12:40:32.0 TEXAS PACIFIC LAND TRUST TPL HORIZON KINETICS ASSET MANAGEMENT LLC 10% owner 12 $543.08 $6,516.96 276,674 view
P 2020-08-21 2020-08-24 12:40:32.0 TEXAS PACIFIC LAND TRUST TPL HORIZON KINETICS ASSET MANAGEMENT LLC 10% owner 12 $552.51 $6,630.12 276,662 view
P 2020-08-20 2020-08-21 12:07:46.0 TEXAS PACIFIC LAND TRUST TPL HORIZON KINETICS ASSET MANAGEMENT LLC 10% owner 12 $559.47 $6,713.64 276,650 view
P 2020-08-19 2020-08-20 12:24:32.0 TEXAS PACIFIC LAND TRUST TPL HORIZON KINETICS ASSET MANAGEMENT LLC 10% owner 12 $572.11 $6,865.32 276,638 view
P 2020-08-18 2020-08-19 11:41:53.0 TEXAS PACIFIC LAND TRUST TPL HORIZON KINETICS ASSET MANAGEMENT LLC 10% owner 12 $587.35 $7,048.20 276,626 view
P 2020-08-17 2020-08-18 14:35:36.0 TEXAS PACIFIC LAND TRUST TPL HORIZON KINETICS ASSET MANAGEMENT LLC 10% owner 12 $596.74 $7,160.88 276,614 view
P 2020-08-14 2020-08-17 11:28:34.0 TEXAS PACIFIC LAND TRUST TPL HORIZON KINETICS ASSET MANAGEMENT LLC 10% owner 12 $600.00 $7,200.00 276,602 view
P 2020-08-13 2020-08-14 12:10:51.0 TEXAS PACIFIC LAND TRUST TPL HORIZON KINETICS ASSET MANAGEMENT LLC 10% owner 26 $588.99 $15,313.70 276,590 view
P 2020-08-12 2020-08-13 12:38:51.0 TEXAS PACIFIC LAND TRUST TPL HORIZON KINETICS ASSET MANAGEMENT LLC 10% owner 48 $590.01 $28,320.50 276,564 view
P 2020-08-11 2020-08-12 12:29:36.0 TEXAS PACIFIC LAND TRUST TPL HORIZON KINETICS ASSET MANAGEMENT LLC 10% owner 30 $588.20 $17,646.00 276,516 view
P 2020-08-10 2020-08-11 11:54:40.0 TEXAS PACIFIC LAND TRUST TPL HORIZON KINETICS ASSET MANAGEMENT LLC 10% owner 16 $599.00 $9,584.00 276,486 view
P 2020-08-07 2020-08-10 12:00:58.0 TEXAS PACIFIC LAND TRUST TPL HORIZON KINETICS ASSET MANAGEMENT LLC 10% owner 8 $584.00 $4,672.00 276,470 view
P 2020-08-06 2020-08-07 11:44:09.0 TEXAS PACIFIC LAND TRUST TPL HORIZON KINETICS ASSET MANAGEMENT LLC 10% owner 14 $576.90 $8,076.60 276,462 view
P 2020-08-05 2020-08-06 11:59:56.0 TEXAS PACIFIC LAND TRUST TPL HORIZON KINETICS ASSET MANAGEMENT LLC 10% owner 16 $602.00 $9,632.00 276,448 view
P 2020-08-04 2020-08-05 10:56:00.0 TEXAS PACIFIC LAND TRUST TPL HORIZON KINETICS ASSET MANAGEMENT LLC 10% owner 12 $564.40 $6,772.80 276,432 view
P 2020-08-03 2020-08-04 12:09:48.0 TEXAS PACIFIC LAND TRUST TPL HORIZON KINETICS ASSET MANAGEMENT LLC 10% owner 12 $539.99 $6,479.88 276,420 view
P 2020-07-31 2020-08-03 12:20:58.0 TEXAS PACIFIC LAND TRUST TPL HORIZON KINETICS ASSET MANAGEMENT LLC 10% owner 16 $532.99 $8,527.84 276,408 view
P 2020-07-30 2020-07-31 13:32:51.0 TEXAS PACIFIC LAND TRUST TPL HORIZON KINETICS ASSET MANAGEMENT LLC 10% owner 12 $554.57 $6,654.84 276,392 view
P 2020-07-29 2020-07-30 14:07:23.0 TEXAS PACIFIC LAND TRUST TPL HORIZON KINETICS ASSET MANAGEMENT LLC 10% owner 12 $562.00 $6,744.00 276,380 view
P 2020-07-28 2020-07-29 11:39:21.0 TEXAS PACIFIC LAND TRUST TPL HORIZON KINETICS ASSET MANAGEMENT LLC 10% owner 12 $548.99 $6,587.88 276,368 view
P 2020-07-27 2020-07-28 12:36:16.0 TEXAS PACIFIC LAND TRUST TPL HORIZON KINETICS ASSET MANAGEMENT LLC 10% owner 12 $555.00 $6,660.00 276,356 view
P 2020-07-24 2020-07-27 13:50:40.0 TEXAS PACIFIC LAND TRUST TPL HORIZON KINETICS ASSET MANAGEMENT LLC 10% owner 12 $560.02 $6,720.24 276,344 view
P 2020-07-23 2020-07-24 11:17:02.0 TEXAS PACIFIC LAND TRUST TPL HORIZON KINETICS ASSET MANAGEMENT LLC 10% owner 14 $568.80 $7,963.20 282,849 view
P 2020-07-22 2020-07-23 12:07:43.0 TEXAS PACIFIC LAND TRUST TPL HORIZON KINETICS ASSET MANAGEMENT LLC 10% owner 12 $573.82 $6,885.84 282,835 view
P 2020-07-21 2020-07-22 11:22:17.0 TEXAS PACIFIC LAND TRUST TPL HORIZON KINETICS ASSET MANAGEMENT LLC 10% owner 12 $582.00 $6,984.00 282,823 view
P 2020-07-20 2020-07-21 11:27:32.0 TEXAS PACIFIC LAND TRUST TPL HORIZON KINETICS ASSET MANAGEMENT LLC 10% owner 172 $575.01 $98,901.70 282,811 view
P 2020-07-17 2020-07-20 11:34:12.0 TEXAS PACIFIC LAND TRUST TPL HORIZON KINETICS ASSET MANAGEMENT LLC 10% owner 172 $585.71 $100,742.00 282,639 view
P 2020-07-16 2020-07-17 11:43:25.0 TEXAS PACIFIC LAND TRUST TPL HORIZON KINETICS ASSET MANAGEMENT LLC 10% owner 172 $582.43 $100,178.00 282,467 view
P 2020-07-15 2020-07-16 11:19:02.0 TEXAS PACIFIC LAND TRUST TPL HORIZON KINETICS ASSET MANAGEMENT LLC 10% owner 172 $596.73 $102,638.00 282,295 view
P 2020-07-14 2020-07-15 11:14:54.0 TEXAS PACIFIC LAND TRUST TPL HORIZON KINETICS ASSET MANAGEMENT LLC 10% owner 172 $585.18 $100,651.00 282,123 view
P 2020-07-13 2020-07-14 10:46:24.0 TEXAS PACIFIC LAND TRUST TPL HORIZON KINETICS ASSET MANAGEMENT LLC 10% owner 172 $537.02 $92,367.40 281,951 view
P 2020-07-10 2020-07-13 12:02:00.0 TEXAS PACIFIC LAND TRUST TPL HORIZON KINETICS ASSET MANAGEMENT LLC 10% owner 172 $547.00 $94,084.00 281,779 view
P 2020-07-09 2020-07-10 10:56:16.0 TEXAS PACIFIC LAND TRUST TPL HORIZON KINETICS ASSET MANAGEMENT LLC 10% owner 178 $542.59 $96,581.00 281,607 view
P 2020-07-08 2020-07-09 11:02:30.0 TEXAS PACIFIC LAND TRUST TPL HORIZON KINETICS ASSET MANAGEMENT LLC 10% owner 172 $561.01 $96,493.70 281,429 view
P 2020-07-07 2020-07-08 12:19:35.0 TEXAS PACIFIC LAND TRUST TPL HORIZON KINETICS ASSET MANAGEMENT LLC 10% owner 172 $549.76 $94,558.70 281,257 view
P 2020-07-06 2020-07-07 11:20:06.0 TEXAS PACIFIC LAND TRUST TPL HORIZON KINETICS ASSET MANAGEMENT LLC 10% owner 236 $569.99 $134,518.00 281,085 view
P 2020-07-02 2020-07-06 10:26:08.0 TEXAS PACIFIC LAND TRUST TPL HORIZON KINETICS ASSET MANAGEMENT LLC 10% owner 236 $577.39 $136,264.00 280,849 view
P 2020-07-01 2020-07-02 16:21:10.0 TEXAS PACIFIC LAND TRUST TPL HORIZON KINETICS ASSET MANAGEMENT LLC 10% owner 236 $578.40 $136,502.00 280,613 view
P 2020-06-30 2020-07-01 12:05:01.0 TEXAS PACIFIC LAND TRUST TPL HORIZON KINETICS ASSET MANAGEMENT LLC 10% owner 236 $594.69 $140,347.00 280,377 view
P 2020-06-29 2020-06-30 12:19:50.0 TEXAS PACIFIC LAND TRUST TPL HORIZON KINETICS ASSET MANAGEMENT LLC 10% owner 236 $570.01 $134,522.00 280,141 view
P 2020-06-26 2020-06-29 10:43:16.0 TEXAS PACIFIC LAND TRUST TPL HORIZON KINETICS ASSET MANAGEMENT LLC 10% owner 236 $572.15 $135,027.00 279,905 view
P 2020-06-25 2020-06-26 12:29:56.0 TEXAS PACIFIC LAND TRUST TPL HORIZON KINETICS ASSET MANAGEMENT LLC 10% owner 232 $584.27 $135,551.00 279,669 view
P 2020-06-24 2020-06-25 11:39:57.0 TEXAS PACIFIC LAND TRUST TPL HORIZON KINETICS ASSET MANAGEMENT LLC 10% owner 236 $572.00 $134,992.00 279,437 view
P 2020-06-23 2020-06-24 11:28:02.0 TEXAS PACIFIC LAND TRUST TPL HORIZON KINETICS ASSET MANAGEMENT LLC 10% owner 236 $599.95 $141,588.00 279,201 view
P 2020-06-19 2020-06-22 11:19:02.0 TEXAS PACIFIC LAND TRUST TPL HORIZON KINETICS ASSET MANAGEMENT LLC 10% owner 936 $624.04 $584,101.00 278,729 view
P 2020-06-18 2020-06-19 11:56:36.0 TEXAS PACIFIC LAND TRUST TPL HORIZON KINETICS ASSET MANAGEMENT LLC 10% owner 236 $614.90 $145,116.00 277,793 view
P 2020-06-17 2020-06-18 11:50:08.0 TEXAS PACIFIC LAND TRUST TPL HORIZON KINETICS ASSET MANAGEMENT LLC 10% owner 236 $625.12 $147,528.00 277,557 view
P 2020-06-16 2020-06-17 12:06:23.0 TEXAS PACIFIC LAND TRUST TPL HORIZON KINETICS ASSET MANAGEMENT LLC 10% owner 236 $641.35 $151,359.00 277,321 view
P 2020-06-15 2020-06-16 17:34:18.0 TEXAS PACIFIC LAND TRUST TPL HORIZON KINETICS ASSET MANAGEMENT LLC 10% owner 236 $625.57 $147,635.00 277,085 view
P 2020-06-12 2020-06-16 17:15:14.0 TEXAS PACIFIC LAND TRUST TPL HORIZON KINETICS ASSET MANAGEMENT LLC 10% owner 238 $627.00 $149,226.00 276,849 view
P 2020-06-12 2020-06-15 16:52:53.0 TEXAS PACIFIC LAND TRUST TPL HORIZON KINETICS ASSET MANAGEMENT LLC 10% owner 238 $627.00 $149,226.00 276,840 view
P 2020-05-15 2020-05-18 11:27:46.0 TEXAS PACIFIC LAND TRUST TPL HORIZON KINETICS ASSET MANAGEMENT LLC 10% owner 5 $524.35 $2,621.75 321,412 view
P 2020-05-14 2020-05-15 13:19:02.0 TEXAS PACIFIC LAND TRUST TPL HORIZON KINETICS ASSET MANAGEMENT LLC 10% owner 414 $519.97 $215,268.00 321,407 view
P 2020-05-13 2020-05-14 12:34:02.0 TEXAS PACIFIC LAND TRUST TPL HORIZON KINETICS ASSET MANAGEMENT LLC 10% owner 414 $511.71 $211,848.00 320,993 view
P 2020-05-12 2020-05-13 11:50:33.0 TEXAS PACIFIC LAND TRUST TPL HORIZON KINETICS ASSET MANAGEMENT LLC 10% owner 463 $524.01 $242,617.00 320,579 view
P 2020-05-11 2020-05-12 11:50:10.0 TEXAS PACIFIC LAND TRUST TPL HORIZON KINETICS ASSET MANAGEMENT LLC 10% owner 288 $520.19 $149,815.00 320,116 view
P 2020-05-08 2020-05-11 11:55:04.0 TEXAS PACIFIC LAND TRUST TPL HORIZON KINETICS ASSET MANAGEMENT LLC 10% owner 176 $521.55 $91,792.80 319,828 view
P 2020-05-07 2020-05-08 12:04:03.0 TEXAS PACIFIC LAND TRUST TPL HORIZON KINETICS ASSET MANAGEMENT LLC 10% owner 8 $493.03 $3,944.24 319,652 view
P 2020-04-14 2020-04-15 11:30:46.0 TEXAS PACIFIC LAND TRUST TPL HORIZON KINETICS ASSET MANAGEMENT LLC 10% owner 1 $535.53 $535.53 319,644 view
P 2020-04-13 2020-04-14 11:49:54.0 TEXAS PACIFIC LAND TRUST TPL HORIZON KINETICS ASSET MANAGEMENT LLC 10% owner 1 $515.10 $515.10 319,643 view
P 2020-04-09 2020-04-13 11:50:26.0 TEXAS PACIFIC LAND TRUST TPL HORIZON KINETICS ASSET MANAGEMENT LLC 10% owner 1 $513.24 $513.24 319,642 view
P 2020-04-08 2020-04-09 12:02:09.0 TEXAS PACIFIC LAND TRUST TPL HORIZON KINETICS ASSET MANAGEMENT LLC 10% owner 1 $471.03 $471.03 319,641 view
P 2020-04-07 2020-04-08 12:28:24.0 TEXAS PACIFIC LAND TRUST TPL HORIZON KINETICS ASSET MANAGEMENT LLC 10% owner 1 $457.04 $457.04 319,640 view
P 2020-04-06 2020-04-07 11:14:28.0 TEXAS PACIFIC LAND TRUST TPL HORIZON KINETICS ASSET MANAGEMENT LLC 10% owner 1 $475.03 $475.03 319,639 view
P 2020-04-03 2020-04-06 11:43:50.0 TEXAS PACIFIC LAND TRUST TPL HORIZON KINETICS ASSET MANAGEMENT LLC 10% owner 3 $457.87 $1,373.61 319,638 view
P 2020-03-26 2020-03-30 14:53:45.0 TEXAS PACIFIC LAND TRUST TPL HORIZON KINETICS ASSET MANAGEMENT LLC 10% owner 10 $370.01 $3,700.10 319,635 view
P 2020-03-16 2020-03-30 14:22:21.0 TEXAS PACIFIC LAND TRUST TPL HORIZON KINETICS ASSET MANAGEMENT LLC 10% owner 482 $407.80 $196,400.00 319,625 view
P 2020-03-24 2020-03-25 12:38:29.0 TEXAS PACIFIC LAND TRUST TPL HORIZON KINETICS ASSET MANAGEMENT LLC 10% owner 8 $388.94 $3,111.52 319,143 view
P 2020-03-23 2020-03-24 11:19:02.0 TEXAS PACIFIC LAND TRUST TPL HORIZON KINETICS ASSET MANAGEMENT LLC 10% owner 18 $308.34 $5,550.12 319,135 view
P 2020-03-20 2020-03-23 12:14:33.0 TEXAS PACIFIC LAND TRUST TPL HORIZON KINETICS ASSET MANAGEMENT LLC 10% owner 29 $352.86 $10,232.90 319,117 view
P 2020-03-19 2020-03-20 11:54:24.0 TEXAS PACIFIC LAND TRUST TPL HORIZON KINETICS ASSET MANAGEMENT LLC 10% owner 28 $354.08 $9,914.24 319,088 view
P 2020-03-18 2020-03-19 11:19:02.0 TEXAS PACIFIC LAND TRUST TPL HORIZON KINETICS ASSET MANAGEMENT LLC 10% owner 32 $310.94 $9,950.08 319,060 view
P 2020-03-17 2020-03-18 11:12:22.0 TEXAS PACIFIC LAND TRUST TPL HORIZON KINETICS ASSET MANAGEMENT LLC 10% owner 11 $368.26 $4,050.86 319,028 view
P 2020-03-16 2020-03-17 11:49:44.0 TEXAS PACIFIC LAND TRUST TPL HORIZON KINETICS ASSET MANAGEMENT LLC 10% owner 11 $410.01 $4,510.11 319,017 view
P 2020-03-13 2020-03-16 11:55:21.0 TEXAS PACIFIC LAND TRUST TPL HORIZON KINETICS ASSET MANAGEMENT LLC 10% owner 11 $436.90 $4,805.90 319,006 view
P 2020-03-12 2020-03-13 11:55:42.0 TEXAS PACIFIC LAND TRUST TPL HORIZON KINETICS ASSET MANAGEMENT LLC 10% owner 11 $410.01 $4,510.11 318,995 view
P 2020-03-11 2020-03-12 11:04:14.0 TEXAS PACIFIC LAND TRUST TPL HORIZON KINETICS ASSET MANAGEMENT LLC 10% owner 8 $457.01 $3,656.08 318,984 view
P 2020-03-09 2020-03-11 17:04:04.0 TEXAS PACIFIC LAND TRUST TPL TESSLER ALLAN R 400 $498.00 $199,200.00 1,700 view
P 2020-03-10 2020-03-11 15:02:09.0 TEXAS PACIFIC LAND TRUST TPL HORIZON KINETICS ASSET MANAGEMENT LLC 10% owner 11 $527.00 $5,797.00 318,976 view
P 2020-03-09 2020-03-10 11:02:58.0 TEXAS PACIFIC LAND TRUST TPL HORIZON KINETICS ASSET MANAGEMENT LLC 10% owner 8 $467.21 $3,737.68 318,965 view
P 2020-03-06 2020-03-09 14:28:50.0 TEXAS PACIFIC LAND TRUST TPL HORIZON KINETICS ASSET MANAGEMENT LLC 10% owner 2 $622.00 $1,244.00 318,957 view
P 2020-03-05 2020-03-06 11:04:02.0 TEXAS PACIFIC LAND TRUST TPL HORIZON KINETICS ASSET MANAGEMENT LLC 10% owner 1 $655.81 $655.81 318,960 view
P 2020-03-03 2020-03-04 10:57:51.0 TEXAS PACIFIC LAND TRUST TPL HORIZON KINETICS ASSET MANAGEMENT LLC 10% owner 1 $671.08 $671.08 318,959 view
P 2020-03-02 2020-03-03 11:10:26.0 TEXAS PACIFIC LAND TRUST TPL HORIZON KINETICS ASSET MANAGEMENT LLC 10% owner 1 $690.70 $690.70 318,958 view
P 2020-02-28 2020-03-02 11:49:44.0 TEXAS PACIFIC LAND TRUST TPL HORIZON KINETICS ASSET MANAGEMENT LLC 10% owner 1 $695.80 $695.80 318,957 view
P 2020-02-27 2020-02-28 13:22:10.0 TEXAS PACIFIC LAND TRUST TPL HORIZON KINETICS ASSET MANAGEMENT LLC 10% owner 1 $678.20 $678.20 318,956 view
P 2020-02-24 2020-02-25 12:42:27.0 TEXAS PACIFIC LAND TRUST TPL HORIZON KINETICS ASSET MANAGEMENT LLC 10% owner 2 $754.00 $1,508.00 318,955 view
P 2020-02-19 2020-02-20 16:00:36.0 TEXAS PACIFIC LAND TRUST TPL HORIZON KINETICS ASSET MANAGEMENT LLC 10% owner 8 $770.62 $6,164.96 318,953 view
P 2020-02-14 2020-02-18 12:05:23.0 TEXAS PACIFIC LAND TRUST TPL HORIZON KINETICS ASSET MANAGEMENT LLC 10% owner 92 $770.07 $70,846.40 318,945 view
P 2020-02-13 2020-02-14 11:28:11.0 TEXAS PACIFIC LAND TRUST TPL HORIZON KINETICS ASSET MANAGEMENT LLC 10% owner 94 $783.50 $73,649.00 318,853 view
P 2020-02-12 2020-02-13 11:44:01.0 TEXAS PACIFIC LAND TRUST TPL HORIZON KINETICS ASSET MANAGEMENT LLC 10% owner 92 $787.75 $72,473.00 318,759 view
P 2020-02-11 2020-02-12 10:49:03.0 TEXAS PACIFIC LAND TRUST TPL HORIZON KINETICS ASSET MANAGEMENT LLC 10% owner 92 $782.10 $71,953.20 318,667 view
P 2020-02-10 2020-02-11 11:27:31.0 TEXAS PACIFIC LAND TRUST TPL HORIZON KINETICS ASSET MANAGEMENT LLC 10% owner 106 $777.46 $82,410.80 318,575 view
P 2020-02-06 2020-02-07 10:50:47.0 TEXAS PACIFIC LAND TRUST TPL HORIZON KINETICS ASSET MANAGEMENT LLC 10% owner 8 $803.97 $6,431.76 318,377 view
P 2020-02-05 2020-02-06 10:58:57.0 TEXAS PACIFIC LAND TRUST TPL HORIZON KINETICS ASSET MANAGEMENT LLC 10% owner 135 $801.07 $108,144.00 318,369 view
P 2020-02-04 2020-02-05 11:40:25.0 TEXAS PACIFIC LAND TRUST TPL HORIZON KINETICS ASSET MANAGEMENT LLC 10% owner 135 $780.04 $105,305.00 318,234 view
P 2020-02-03 2020-02-04 12:08:08.0 TEXAS PACIFIC LAND TRUST TPL HORIZON KINETICS ASSET MANAGEMENT LLC 10% owner 135 $750.00 $101,250.00 318,099 view
P 2020-01-31 2020-02-03 11:49:54.0 TEXAS PACIFIC LAND TRUST TPL HORIZON KINETICS ASSET MANAGEMENT LLC 10% owner 135 $755.71 $102,021.00 317,964 view
P 2020-01-30 2020-01-31 09:43:37.0 TEXAS PACIFIC LAND TRUST TPL HORIZON KINETICS ASSET MANAGEMENT LLC 10% owner 135 $726.50 $98,077.50 317,829 view
P 2020-01-29 2020-01-30 11:21:58.0 TEXAS PACIFIC LAND TRUST TPL HORIZON KINETICS ASSET MANAGEMENT LLC 10% owner 203 $742.00 $150,626.00 317,694 view
P 2020-01-28 2020-01-29 12:09:44.0 TEXAS PACIFIC LAND TRUST TPL HORIZON KINETICS ASSET MANAGEMENT LLC 10% owner 135 $745.55 $100,649.00 317,491 view
P 2020-01-27 2020-01-28 11:15:31.0 TEXAS PACIFIC LAND TRUST TPL HORIZON KINETICS ASSET MANAGEMENT LLC 10% owner 137 $735.13 $100,713.00 317,356 view
P 2020-01-24 2020-01-27 11:11:50.0 TEXAS PACIFIC LAND TRUST TPL HORIZON KINETICS ASSET MANAGEMENT LLC 10% owner 135 $751.23 $101,416.00 317,219 view
P 2020-01-23 2020-01-24 11:50:02.0 TEXAS PACIFIC LAND TRUST TPL HORIZON KINETICS ASSET MANAGEMENT LLC 10% owner 135 $759.00 $102,465.00 317,084 view
P 2020-01-22 2020-01-23 09:49:02.0 TEXAS PACIFIC LAND TRUST TPL HORIZON KINETICS ASSET MANAGEMENT LLC 10% owner 139 $766.80 $106,585.00 316,949 view
P 2020-01-21 2020-01-22 11:36:05.0 TEXAS PACIFIC LAND TRUST TPL HORIZON KINETICS ASSET MANAGEMENT LLC 10% owner 135 $781.94 $105,562.00 316,810 view
P 2020-01-17 2020-01-21 12:56:34.0 TEXAS PACIFIC LAND TRUST TPL HORIZON KINETICS ASSET MANAGEMENT LLC 10% owner 142 $792.86 $112,586.00 316,675 view
P 2020-01-16 2020-01-17 11:34:06.0 TEXAS PACIFIC LAND TRUST TPL HORIZON KINETICS ASSET MANAGEMENT LLC 10% owner 150 $794.90 $119,235.00 316,533 view
P 2020-01-15 2020-01-16 11:22:20.0 TEXAS PACIFIC LAND TRUST TPL HORIZON KINETICS ASSET MANAGEMENT LLC 10% owner 150 $795.92 $119,388.00 316,383 view
P 2020-01-14 2020-01-15 11:38:58.0 TEXAS PACIFIC LAND TRUST TPL HORIZON KINETICS ASSET MANAGEMENT LLC 10% owner 150 $799.45 $119,918.00 316,233 view
P 2020-01-13 2020-01-14 11:52:43.0 TEXAS PACIFIC LAND TRUST TPL HORIZON KINETICS ASSET MANAGEMENT LLC 10% owner 150 $804.90 $120,735.00 316,083 view
P 2020-01-10 2020-01-13 11:25:47.0 TEXAS PACIFIC LAND TRUST TPL HORIZON KINETICS ASSET MANAGEMENT LLC 10% owner 150 $809.28 $121,392.00 315,933 view
P 2020-01-09 2020-01-10 11:34:49.0 TEXAS PACIFIC LAND TRUST TPL HORIZON KINETICS ASSET MANAGEMENT LLC 10% owner 150 $813.19 $121,978.00 315,783 view
P 2020-01-08 2020-01-09 12:02:59.0 TEXAS PACIFIC LAND TRUST TPL HORIZON KINETICS ASSET MANAGEMENT LLC 10% owner 150 $819.37 $122,906.00 315,633 view
P 2019-01-07 2020-01-08 11:11:22.0 TEXAS PACIFIC LAND TRUST TPL HORIZON KINETICS ASSET MANAGEMENT LLC 10% owner 10 $805.00 $8,050.00 315,483 view
P 2020-01-06 2020-01-07 11:15:41.0 TEXAS PACIFIC LAND TRUST TPL HORIZON KINETICS ASSET MANAGEMENT LLC 10% owner 10 $803.50 $8,035.00 315,473 view
P 2020-01-03 2020-01-06 11:39:18.0 TEXAS PACIFIC LAND TRUST TPL HORIZON KINETICS ASSET MANAGEMENT LLC 10% owner 10 $791.55 $7,915.50 315,463 view
P 2020-01-02 2020-01-03 11:28:11.0 TEXAS PACIFIC LAND TRUST TPL HORIZON KINETICS ASSET MANAGEMENT LLC 10% owner 10 $784.50 $7,845.00 315,453 view
P 2019-12-31 2020-01-02 11:27:09.0 TEXAS PACIFIC LAND TRUST TPL HORIZON KINETICS ASSET MANAGEMENT LLC 10% owner 8 $781.22 $6,249.76 315,443 view
P 2019-12-30 2019-12-31 11:43:12.0 TEXAS PACIFIC LAND TRUST TPL HORIZON KINETICS ASSET MANAGEMENT LLC 10% owner 8 $788.34 $6,306.72 315,435 view
P 2019-12-27 2019-12-30 11:47:24.0 TEXAS PACIFIC LAND TRUST TPL HORIZON KINETICS ASSET MANAGEMENT LLC 10% owner 8 $795.04 $6,360.32 315,427 view
P 2019-12-26 2019-12-27 12:24:28.0 TEXAS PACIFIC LAND TRUST TPL HORIZON KINETICS ASSET MANAGEMENT LLC 10% owner 41 $785.22 $32,194.00 315,419 view
P 2019-12-24 2019-12-26 10:54:30.0 TEXAS PACIFIC LAND TRUST TPL HORIZON KINETICS ASSET MANAGEMENT LLC 10% owner 41 $797.01 $32,677.40 315,378 view
P 2019-12-23 2019-12-26 10:54:30.0 TEXAS PACIFIC LAND TRUST TPL HORIZON KINETICS ASSET MANAGEMENT LLC 10% owner 41 $783.70 $32,131.70 315,337 view
P 2019-12-20 2019-12-23 11:39:41.0 TEXAS PACIFIC LAND TRUST TPL HORIZON KINETICS ASSET MANAGEMENT LLC 10% owner 41 $765.92 $31,402.70 315,296 view
P 2019-12-19 2019-12-20 11:31:20.0 TEXAS PACIFIC LAND TRUST TPL HORIZON KINETICS ASSET MANAGEMENT LLC 10% owner 41 $732.03 $30,013.20 315,255 view
P 2019-12-18 2019-12-19 12:26:09.0 TEXAS PACIFIC LAND TRUST TPL HORIZON KINETICS ASSET MANAGEMENT LLC 10% owner 41 $708.12 $29,032.90 315,214 view
P 2019-12-17 2019-12-18 10:50:08.0 TEXAS PACIFIC LAND TRUST TPL HORIZON KINETICS ASSET MANAGEMENT LLC 10% owner 257 $702.99 $180,668.00 315,173 view
P 2019-12-16 2019-12-17 11:19:04.0 TEXAS PACIFIC LAND TRUST TPL HORIZON KINETICS ASSET MANAGEMENT LLC 10% owner 47 $695.05 $32,667.30 314,916 view
P 2019-12-13 2019-12-16 12:59:10.0 TEXAS PACIFIC LAND TRUST TPL HORIZON KINETICS ASSET MANAGEMENT LLC 10% owner 40 $683.86 $27,354.40 314,869 view
P 2019-12-12 2019-12-13 11:23:48.0 TEXAS PACIFIC LAND TRUST TPL HORIZON KINETICS ASSET MANAGEMENT LLC 10% owner 40 $688.00 $27,520.00 314,829 view
P 2019-12-11 2019-12-12 11:32:25.0 TEXAS PACIFIC LAND TRUST TPL HORIZON KINETICS ASSET MANAGEMENT LLC 10% owner 40 $675.02 $27,000.80 314,789 view
P 2019-12-10 2019-12-11 11:36:07.0 TEXAS PACIFIC LAND TRUST TPL HORIZON KINETICS ASSET MANAGEMENT LLC 10% owner 40 $672.19 $26,887.60 314,749 view
P 2019-12-09 2019-12-10 11:32:25.0 TEXAS PACIFIC LAND TRUST TPL HORIZON KINETICS ASSET MANAGEMENT LLC 10% owner 40 $668.94 $26,757.60 314,709 view
P 2019-12-06 2019-12-09 10:58:24.0 TEXAS PACIFIC LAND TRUST TPL HORIZON KINETICS ASSET MANAGEMENT LLC 10% owner 33 $667.55 $22,029.20 314,669 view
P 2019-12-05 2019-12-06 11:37:15.0 TEXAS PACIFIC LAND TRUST TPL HORIZON KINETICS ASSET MANAGEMENT LLC 10% owner 40 $666.40 $26,656.00 314,636 view
P 2019-12-04 2019-12-05 11:29:37.0 TEXAS PACIFIC LAND TRUST TPL HORIZON KINETICS ASSET MANAGEMENT LLC 10% owner 33 $666.64 $21,999.10 314,596 view
P 2019-12-03 2019-12-04 11:54:26.0 TEXAS PACIFIC LAND TRUST TPL HORIZON KINETICS ASSET MANAGEMENT LLC 10% owner 33 $645.61 $21,305.10 314,563 view
P 2019-12-02 2019-12-03 11:56:23.0 TEXAS PACIFIC LAND TRUST TPL HORIZON KINETICS ASSET MANAGEMENT LLC 10% owner 37 $650.00 $24,050.00 314,530 view
P 2019-11-29 2019-12-02 11:29:08.0 TEXAS PACIFIC LAND TRUST TPL HORIZON KINETICS ASSET MANAGEMENT LLC 10% owner 33 $674.98 $22,274.30 314,493 view
P 2019-11-27 2019-11-29 10:21:29.0 TEXAS PACIFIC LAND TRUST TPL HORIZON KINETICS ASSET MANAGEMENT LLC 10% owner 33 $675.99 $22,307.70 314,460 view
P 2019-11-26 2019-11-27 10:04:06.0 TEXAS PACIFIC LAND TRUST TPL HORIZON KINETICS ASSET MANAGEMENT LLC 10% owner 37 $667.20 $24,686.40 314,427 view
P 2019-11-25 2019-11-26 10:58:53.0 TEXAS PACIFIC LAND TRUST TPL HORIZON KINETICS ASSET MANAGEMENT LLC 10% owner 33 $676.00 $22,308.00 314,390 view
P 2019-11-22 2019-11-25 11:44:19.0 TEXAS PACIFIC LAND TRUST TPL HORIZON KINETICS ASSET MANAGEMENT LLC 10% owner 26 $670.00 $17,420.00 314,357 view
P 2019-11-21 2019-11-22 11:36:25.0 TEXAS PACIFIC LAND TRUST TPL HORIZON KINETICS ASSET MANAGEMENT LLC 10% owner 26 $679.21 $17,659.50 314,331 view
P 2019-11-20 2019-11-21 11:45:27.0 TEXAS PACIFIC LAND TRUST TPL HORIZON KINETICS ASSET MANAGEMENT LLC 10% owner 46 $690.18 $31,748.30 314,305 view
P 2019-11-19 2019-11-20 11:39:36.0 TEXAS PACIFIC LAND TRUST TPL HORIZON KINETICS ASSET MANAGEMENT LLC 10% owner 25 $682.64 $17,066.00 314,259 view
P 2019-11-18 2019-11-19 11:08:05.0 TEXAS PACIFIC LAND TRUST TPL HORIZON KINETICS ASSET MANAGEMENT LLC 10% owner 25 $665.05 $16,626.20 314,234 view
P 2019-11-15 2019-11-18 11:24:55.0 TEXAS PACIFIC LAND TRUST TPL HORIZON KINETICS ASSET MANAGEMENT LLC 10% owner 109 $665.00 $72,485.00 314,209 view
P 2019-11-14 2019-11-15 11:10:42.0 TEXAS PACIFIC LAND TRUST TPL HORIZON KINETICS ASSET MANAGEMENT LLC 10% owner 108 $651.01 $70,309.10 314,100 view
P 2019-11-13 2019-11-14 12:04:47.0 TEXAS PACIFIC LAND TRUST TPL HORIZON KINETICS ASSET MANAGEMENT LLC 10% owner 23 $664.37 $15,280.50 313,992 view
P 2019-11-12 2019-11-13 11:10:50.0 TEXAS PACIFIC LAND TRUST TPL HORIZON KINETICS ASSET MANAGEMENT LLC 10% owner 33 $646.75 $21,342.80 313,969 view
P 2019-11-11 2019-11-12 11:15:30.0 TEXAS PACIFIC LAND TRUST TPL HORIZON KINETICS ASSET MANAGEMENT LLC 10% owner 51 $647.54 $33,024.50 313,936 view
P 2019-11-08 2019-11-12 11:15:30.0 TEXAS PACIFIC LAND TRUST TPL HORIZON KINETICS ASSET MANAGEMENT LLC 10% owner 28 $645.00 $18,060.00 313,885 view
P 2019-11-07 2019-11-08 11:15:22.0 TEXAS PACIFIC LAND TRUST TPL HORIZON KINETICS ASSET MANAGEMENT LLC 10% owner 9 $644.49 $5,800.41 313,857 view
P 2019-11-06 2019-11-07 11:54:36.0 TEXAS PACIFIC LAND TRUST TPL HORIZON KINETICS ASSET MANAGEMENT LLC 10% owner 9 $654.49 $5,890.41 313,848 view
P 2019-11-05 2019-11-06 11:30:39.0 TEXAS PACIFIC LAND TRUST TPL HORIZON KINETICS ASSET MANAGEMENT LLC 10% owner 9 $656.48 $5,908.32 313,839 view
P 2019-11-04 2019-11-05 13:52:36.0 TEXAS PACIFIC LAND TRUST TPL HORIZON KINETICS ASSET MANAGEMENT LLC 10% owner 9 $647.83 $5,830.47 313,830 view
P 2019-11-01 2019-11-04 12:01:02.0 TEXAS PACIFIC LAND TRUST TPL HORIZON KINETICS ASSET MANAGEMENT LLC 10% owner 496 $622.78 $308,899.00 313,821 view
P 2019-10-31 2019-11-01 10:21:01.0 TEXAS PACIFIC LAND TRUST TPL HORIZON KINETICS ASSET MANAGEMENT LLC 10% owner 9 $580.21 $5,221.89 313,325 view
P 2019-10-30 2019-10-31 11:37:03.0 TEXAS PACIFIC LAND TRUST TPL HORIZON KINETICS ASSET MANAGEMENT LLC 10% owner 14 $594.46 $8,322.44 313,316 view
P 2019-10-29 2019-10-30 11:19:43.0 TEXAS PACIFIC LAND TRUST TPL HORIZON KINETICS ASSET MANAGEMENT LLC 10% owner 9 $603.62 $5,432.58 313,302 view
P 2019-10-28 2019-10-29 11:04:05.0 TEXAS PACIFIC LAND TRUST TPL HORIZON KINETICS ASSET MANAGEMENT LLC 10% owner 9 $607.00 $5,463.00 313,293 view
P 2019-10-25 2019-10-28 11:23:07.0 TEXAS PACIFIC LAND TRUST TPL HORIZON KINETICS ASSET MANAGEMENT LLC 10% owner 9 $607.73 $5,469.57 313,284 view
P 2019-10-24 2019-10-25 11:12:08.0 TEXAS PACIFIC LAND TRUST TPL HORIZON KINETICS ASSET MANAGEMENT LLC 10% owner 9 $618.70 $5,568.30 313,275 view
P 2019-10-23 2019-10-24 11:29:37.0 TEXAS PACIFIC LAND TRUST TPL HORIZON KINETICS ASSET MANAGEMENT LLC 10% owner 9 $613.70 $5,523.30 313,266 view
P 2019-10-22 2019-10-23 11:57:20.0 TEXAS PACIFIC LAND TRUST TPL HORIZON KINETICS ASSET MANAGEMENT LLC 10% owner 9 $607.72 $5,469.48 313,257 view
P 2019-10-21 2019-10-22 12:19:04.0 TEXAS PACIFIC LAND TRUST TPL HORIZON KINETICS ASSET MANAGEMENT LLC 10% owner 9 $596.85 $5,371.65 313,248 view
P 2019-10-18 2019-10-21 11:21:14.0 TEXAS PACIFIC LAND TRUST TPL HORIZON KINETICS ASSET MANAGEMENT LLC 10% owner 9 $600.03 $5,400.27 313,239 view
P 2019-10-17 2019-10-18 11:04:06.0 TEXAS PACIFIC LAND TRUST TPL HORIZON KINETICS ASSET MANAGEMENT LLC 10% owner 9 $594.31 $5,348.79 313,230 view
P 2019-10-16 2019-10-17 11:24:48.0 TEXAS PACIFIC LAND TRUST TPL HORIZON KINETICS ASSET MANAGEMENT LLC 10% owner 9 $618.50 $5,566.50 313,221 view
P 2019-10-15 2019-10-16 13:24:39.0 TEXAS PACIFIC LAND TRUST TPL HORIZON KINETICS ASSET MANAGEMENT LLC 10% owner 9 $608.46 $5,476.14 313,212 view
P 2019-10-14 2019-10-15 13:46:13.0 TEXAS PACIFIC LAND TRUST TPL HORIZON KINETICS ASSET MANAGEMENT LLC 10% owner 9 $609.45 $5,485.05 313,203 view
P 2019-10-11 2019-10-15 13:46:13.0 TEXAS PACIFIC LAND TRUST TPL HORIZON KINETICS ASSET MANAGEMENT LLC 10% owner 9 $621.50 $5,593.50 313,194 view
P 2019-10-10 2019-10-11 12:08:09.0 TEXAS PACIFIC LAND TRUST TPL HORIZON KINETICS ASSET MANAGEMENT LLC 10% owner 7 $609.46 $4,266.22 313,185 view
P 2019-10-09 2019-10-10 11:43:54.0 TEXAS PACIFIC LAND TRUST TPL HORIZON KINETICS ASSET MANAGEMENT LLC 10% owner 7 $618.50 $4,329.50 313,178 view
P 2019-10-08 2019-10-09 12:02:59.0 TEXAS PACIFIC LAND TRUST TPL HORIZON KINETICS ASSET MANAGEMENT LLC 10% owner 7 $603.10 $4,221.70 313,171 view
P 2019-10-07 2019-10-08 11:39:37.0 TEXAS PACIFIC LAND TRUST TPL HORIZON KINETICS ASSET MANAGEMENT LLC 10% owner 7 $606.25 $4,243.75 313,164 view
P 2019-10-04 2019-10-08 09:44:20.0 TEXAS PACIFIC LAND TRUST TPL TESSLER ALLAN R 500 $603.86 $301,930.00 10,830 view
P 2019-10-04 2019-10-07 12:19:03.0 TEXAS PACIFIC LAND TRUST TPL HORIZON KINETICS ASSET MANAGEMENT LLC 10% owner 5 $600.03 $3,000.15 313,157 view
P 2019-10-03 2019-10-04 11:16:21.0 TEXAS PACIFIC LAND TRUST TPL HORIZON KINETICS ASSET MANAGEMENT LLC 10% owner 5 $620.87 $3,104.35 313,152 view
P 2019-10-02 2019-10-03 12:20:29.0 TEXAS PACIFIC LAND TRUST TPL HORIZON KINETICS ASSET MANAGEMENT LLC 10% owner 5 $610.98 $3,054.90 313,147 view
P 2019-10-01 2019-10-02 12:39:59.0 TEXAS PACIFIC LAND TRUST TPL HORIZON KINETICS ASSET MANAGEMENT LLC 10% owner 10 $645.35 $6,453.50 313,142 view
P 2019-09-30 2019-10-01 11:45:01.0 TEXAS PACIFIC LAND TRUST TPL HORIZON KINETICS ASSET MANAGEMENT LLC 10% owner 5 $643.24 $3,216.20 313,132 view
P 2019-09-27 2019-09-30 12:05:00.0 TEXAS PACIFIC LAND TRUST TPL HORIZON KINETICS ASSET MANAGEMENT LLC 10% owner 5 $639.70 $3,198.50 313,127 view
P 2019-09-26 2019-09-27 14:14:17.0 TEXAS PACIFIC LAND TRUST TPL HORIZON KINETICS ASSET MANAGEMENT LLC 10% owner 5 $642.55 $3,212.75 313,122 view
P 2019-09-25 2019-09-26 15:59:25.0 TEXAS PACIFIC LAND TRUST TPL HORIZON KINETICS ASSET MANAGEMENT LLC 10% owner 5 $646.31 $3,231.55 313,117 view
P 2019-09-24 2019-09-25 13:47:12.0 TEXAS PACIFIC LAND TRUST TPL HORIZON KINETICS ASSET MANAGEMENT LLC 10% owner 5 $651.51 $3,257.55 313,112 view
P 2019-09-17 2019-09-18 12:30:51.0 TEXAS PACIFIC LAND TRUST TPL HORIZON KINETICS ASSET MANAGEMENT LLC 10% owner 43 $698.31 $30,027.30 301,507 view
P 2019-09-16 2019-09-17 12:54:16.0 TEXAS PACIFIC LAND TRUST TPL HORIZON KINETICS ASSET MANAGEMENT LLC 10% owner 49 $705.71 $34,579.80 301,464 view
P 2019-09-13 2019-09-16 12:24:46.0 TEXAS PACIFIC LAND TRUST TPL HORIZON KINETICS ASSET MANAGEMENT LLC 10% owner 49 $673.78 $33,015.20 301,415 view
P 2019-09-12 2019-09-13 12:32:24.0 TEXAS PACIFIC LAND TRUST TPL HORIZON KINETICS ASSET MANAGEMENT LLC 10% owner 49 $663.00 $32,487.00 301,366 view
P 2019-09-11 2019-09-12 11:32:55.0 TEXAS PACIFIC LAND TRUST TPL HORIZON KINETICS ASSET MANAGEMENT LLC 10% owner 49 $655.86 $32,137.10 301,317 view
P 2019-09-10 2019-09-11 11:11:43.0 TEXAS PACIFIC LAND TRUST TPL HORIZON KINETICS ASSET MANAGEMENT LLC 10% owner 49 $659.40 $32,310.60 301,268 view
P 2019-09-09 2019-09-10 10:53:10.0 TEXAS PACIFIC LAND TRUST TPL HORIZON KINETICS ASSET MANAGEMENT LLC 10% owner 49 $686.90 $33,658.10 301,219 view
P 2019-09-06 2019-09-09 11:30:33.0 TEXAS PACIFIC LAND TRUST TPL HORIZON KINETICS ASSET MANAGEMENT LLC 10% owner 49 $697.48 $34,176.50 301,170 view
P 2019-09-05 2019-09-06 11:19:48.0 TEXAS PACIFIC LAND TRUST TPL HORIZON KINETICS ASSET MANAGEMENT LLC 10% owner 49 $706.50 $34,618.50 301,121 view
P 2019-09-04 2019-09-05 12:12:14.0 TEXAS PACIFIC LAND TRUST TPL HORIZON KINETICS ASSET MANAGEMENT LLC 10% owner 49 $670.27 $32,843.20 301,072 view
P 2019-09-03 2019-09-04 10:59:14.0 TEXAS PACIFIC LAND TRUST TPL HORIZON KINETICS ASSET MANAGEMENT LLC 10% owner 49 $653.89 $32,040.60 301,023 view
P 2019-08-30 2019-09-03 11:40:20.0 TEXAS PACIFIC LAND TRUST TPL HORIZON KINETICS ASSET MANAGEMENT LLC 10% owner 49 $654.60 $32,075.40 300,974 view
P 2019-08-29 2019-08-30 12:52:04.0 TEXAS PACIFIC LAND TRUST TPL HORIZON KINETICS ASSET MANAGEMENT LLC 10% owner 54 $656.10 $35,429.40 300,925 view
P 2019-08-28 2019-08-29 11:10:49.0 TEXAS PACIFIC LAND TRUST TPL HORIZON KINETICS ASSET MANAGEMENT LLC 10% owner 49 $641.58 $31,437.40 300,871 view
P 2019-08-27 2019-08-28 11:22:29.0 TEXAS PACIFIC LAND TRUST TPL HORIZON KINETICS ASSET MANAGEMENT LLC 10% owner 49 $637.50 $31,237.50 300,822 view
P 2019-08-26 2019-08-27 12:05:12.0 TEXAS PACIFIC LAND TRUST TPL HORIZON KINETICS ASSET MANAGEMENT LLC 10% owner 49 $636.08 $31,167.90 300,773 view
P 2019-08-23 2019-08-26 11:32:44.0 TEXAS PACIFIC LAND TRUST TPL HORIZON KINETICS ASSET MANAGEMENT LLC 10% owner 49 $668.39 $32,751.10 300,724 view
P 2019-08-22 2019-08-23 10:52:38.0 TEXAS PACIFIC LAND TRUST TPL HORIZON KINETICS ASSET MANAGEMENT LLC 10% owner 49 $674.50 $33,050.50 300,675 view
P 2019-08-21 2019-08-22 11:27:04.0 TEXAS PACIFIC LAND TRUST TPL HORIZON KINETICS ASSET MANAGEMENT LLC 10% owner 49 $669.37 $32,799.10 300,626 view
P 2019-08-20 2019-08-21 10:59:49.0 TEXAS PACIFIC LAND TRUST TPL HORIZON KINETICS ASSET MANAGEMENT LLC 10% owner 49 $666.50 $32,658.50 300,577 view
P 2019-08-19 2019-08-20 11:07:15.0 TEXAS PACIFIC LAND TRUST TPL HORIZON KINETICS ASSET MANAGEMENT LLC 10% owner 49 $679.36 $33,288.60 300,528 view
P 2019-08-16 2019-08-19 12:13:27.0 TEXAS PACIFIC LAND TRUST TPL HORIZON KINETICS ASSET MANAGEMENT LLC 10% owner 49 $671.46 $32,901.50 300,479 view
P 2019-08-15 2019-08-16 11:12:23.0 TEXAS PACIFIC LAND TRUST TPL HORIZON KINETICS ASSET MANAGEMENT LLC 10% owner 49 $649.73 $31,836.80 300,430 view
P 2019-08-14 2019-08-15 11:16:20.0 TEXAS PACIFIC LAND TRUST TPL HORIZON KINETICS ASSET MANAGEMENT LLC 10% owner 188 $641.00 $120,508.00 300,381 view
P 2019-08-13 2019-08-14 11:36:36.0 TEXAS PACIFIC LAND TRUST TPL HORIZON KINETICS ASSET MANAGEMENT LLC 10% owner 49 $688.78 $33,750.20 300,193 view
P 2019-08-12 2019-08-13 11:27:18.0 TEXAS PACIFIC LAND TRUST TPL HORIZON KINETICS ASSET MANAGEMENT LLC 10% owner 49 $679.65 $33,302.90 300,144 view
P 2019-08-09 2019-08-12 10:07:19.0 TEXAS PACIFIC LAND TRUST TPL HORIZON KINETICS ASSET MANAGEMENT LLC 10% owner 49 $673.70 $33,011.30 300,095 view
P 2019-08-08 2019-08-09 11:06:21.0 TEXAS PACIFIC LAND TRUST TPL HORIZON KINETICS ASSET MANAGEMENT LLC 10% owner 49 $674.39 $33,045.10 300,046 view
P 2019-08-07 2019-08-08 10:57:18.0 TEXAS PACIFIC LAND TRUST TPL HORIZON KINETICS ASSET MANAGEMENT LLC 10% owner 49 $659.12 $32,296.90 299,997 view
P 2019-08-06 2019-08-07 10:19:07.0 TEXAS PACIFIC LAND TRUST TPL HORIZON KINETICS ASSET MANAGEMENT LLC 10% owner 49 $681.00 $33,369.00 299,948 view
P 2019-08-05 2019-08-06 10:12:53.0 TEXAS PACIFIC LAND TRUST TPL HORIZON KINETICS ASSET MANAGEMENT LLC 10% owner 49 $689.76 $33,798.20 299,899 view
P 2019-08-02 2019-08-05 09:57:00.0 TEXAS PACIFIC LAND TRUST TPL HORIZON KINETICS ASSET MANAGEMENT LLC 10% owner 49 $720.23 $35,291.30 299,850 view
P 2019-08-01 2019-08-02 10:40:44.0 TEXAS PACIFIC LAND TRUST TPL HORIZON KINETICS ASSET MANAGEMENT LLC 10% owner 49 $759.85 $37,232.60 299,801 view
P 2019-07-31 2019-08-01 14:34:05.0 TEXAS PACIFIC LAND TRUST TPL HORIZON KINETICS ASSET MANAGEMENT LLC 10% owner 49 $800.00 $39,200.00 299,752 view
P 2019-07-30 2019-07-31 11:19:53.0 TEXAS PACIFIC LAND TRUST TPL HORIZON KINETICS ASSET MANAGEMENT LLC 10% owner 49 $755.49 $37,019.00 299,703 view
P 2019-07-29 2019-07-30 16:30:11.0 TEXAS PACIFIC LAND TRUST TPL HORIZON KINETICS ASSET MANAGEMENT LLC 10% owner 49 $740.50 $36,284.50 299,654 view
P 2019-07-26 2019-07-29 11:37:23.0 TEXAS PACIFIC LAND TRUST TPL HORIZON KINETICS ASSET MANAGEMENT LLC 10% owner 49 $749.50 $36,725.50 299,605 view
P 2019-07-25 2019-07-26 11:36:36.0 TEXAS PACIFIC LAND TRUST TPL HORIZON KINETICS ASSET MANAGEMENT LLC 10% owner 49 $744.49 $36,480.00 299,556 view
P 2019-07-24 2019-07-25 12:05:46.0 TEXAS PACIFIC LAND TRUST TPL HORIZON KINETICS ASSET MANAGEMENT LLC 10% owner 49 $753.12 $36,902.90 299,507 view
P 2019-07-23 2019-07-24 11:08:53.0 TEXAS PACIFIC LAND TRUST TPL HORIZON KINETICS ASSET MANAGEMENT LLC 10% owner 49 $749.44 $36,722.60 299,458 view
P 2019-07-22 2019-07-23 10:40:43.0 TEXAS PACIFIC LAND TRUST TPL HORIZON KINETICS ASSET MANAGEMENT LLC 10% owner 49 $768.84 $37,673.20 299,409 view
P 2019-07-19 2019-07-22 11:31:08.0 TEXAS PACIFIC LAND TRUST TPL HORIZON KINETICS ASSET MANAGEMENT LLC 10% owner 49 $764.50 $37,460.50 299,360 view
P 2019-07-18 2019-07-19 11:01:27.0 TEXAS PACIFIC LAND TRUST TPL HORIZON KINETICS ASSET MANAGEMENT LLC 10% owner 49 $759.50 $37,215.50 299,311 view
P 2019-07-17 2019-07-18 16:15:57.0 TEXAS PACIFIC LAND TRUST TPL HORIZON KINETICS ASSET MANAGEMENT LLC 10% owner 157 $769.49 $120,810.00 299,262 view
P 2019-07-16 2019-07-17 10:55:54.0 TEXAS PACIFIC LAND TRUST TPL HORIZON KINETICS ASSET MANAGEMENT LLC 10% owner 49 $779.61 $38,200.90 299,105 view
P 2019-07-15 2019-07-16 12:12:24.0 TEXAS PACIFIC LAND TRUST TPL HORIZON KINETICS ASSET MANAGEMENT LLC 10% owner 49 $795.00 $38,955.00 299,056 view
P 2019-07-12 2019-07-15 11:12:38.0 TEXAS PACIFIC LAND TRUST TPL HORIZON KINETICS ASSET MANAGEMENT LLC 10% owner 49 $798.15 $39,109.40 299,007 view
P 2019-07-11 2019-07-12 11:46:55.0 TEXAS PACIFIC LAND TRUST TPL HORIZON KINETICS ASSET MANAGEMENT LLC 10% owner 49 $808.89 $39,635.60 298,958 view
P 2019-07-10 2019-07-11 12:10:52.0 TEXAS PACIFIC LAND TRUST TPL HORIZON KINETICS ASSET MANAGEMENT LLC 10% owner 50 $797.58 $39,879.00 298,909 view
P 2019-07-08 2019-07-09 11:44:52.0 TEXAS PACIFIC LAND TRUST TPL HORIZON KINETICS ASSET MANAGEMENT LLC 10% owner 50 $810.20 $40,510.00 298,809 view
P 2019-07-05 2019-07-08 11:16:13.0 TEXAS PACIFIC LAND TRUST TPL HORIZON KINETICS ASSET MANAGEMENT LLC 10% owner 50 $798.67 $39,933.50 298,759 view
P 2019-07-03 2019-07-05 11:22:06.0 TEXAS PACIFIC LAND TRUST TPL HORIZON KINETICS ASSET MANAGEMENT LLC 10% owner 50 $793.74 $39,687.00 298,709 view
P 2019-07-02 2019-07-03 10:59:55.0 TEXAS PACIFIC LAND TRUST TPL HORIZON KINETICS ASSET MANAGEMENT LLC 10% owner 50 $811.04 $40,552.00 298,659 view
P 2019-07-01 2019-07-02 12:23:21.0 TEXAS PACIFIC LAND TRUST TPL HORIZON KINETICS ASSET MANAGEMENT LLC 10% owner 50 $799.99 $39,999.50 298,609 view
P 2019-06-28 2019-07-01 11:27:16.0 TEXAS PACIFIC LAND TRUST TPL HORIZON KINETICS ASSET MANAGEMENT LLC 10% owner 50 $795.24 $39,762.00 298,559 view
P 2019-06-27 2019-06-28 11:17:44.0 TEXAS PACIFIC LAND TRUST TPL HORIZON KINETICS ASSET MANAGEMENT LLC 10% owner 50 $785.98 $39,299.00 298,509 view
P 2019-06-26 2019-06-27 11:24:38.0 TEXAS PACIFIC LAND TRUST TPL HORIZON KINETICS ASSET MANAGEMENT LLC 10% owner 50 $817.18 $40,859.00 298,459 view
P 2019-06-25 2019-06-26 14:01:20.0 TEXAS PACIFIC LAND TRUST TPL HORIZON KINETICS ASSET MANAGEMENT LLC 10% owner 50 $787.20 $39,360.00 298,409 view
P 2019-06-24 2019-06-25 10:58:50.0 TEXAS PACIFIC LAND TRUST TPL HORIZON KINETICS ASSET MANAGEMENT LLC 10% owner 50 $782.12 $39,106.00 298,359 view
P 2019-06-21 2019-06-24 11:50:01.0 TEXAS PACIFIC LAND TRUST TPL HORIZON KINETICS ASSET MANAGEMENT LLC 10% owner 50 $791.07 $39,553.50 298,309 view
P 2019-06-20 2019-06-21 11:08:33.0 TEXAS PACIFIC LAND TRUST TPL HORIZON KINETICS ASSET MANAGEMENT LLC 10% owner 50 $796.72 $39,836.00 298,259 view
P 2019-06-19 2019-06-20 11:15:25.0 TEXAS PACIFIC LAND TRUST TPL HORIZON KINETICS ASSET MANAGEMENT LLC 10% owner 50 $755.88 $37,794.00 298,209 view
P 2019-06-18 2019-06-19 11:19:03.0 TEXAS PACIFIC LAND TRUST TPL HORIZON KINETICS ASSET MANAGEMENT LLC 10% owner 50 $735.09 $36,754.50 298,159 view
P 2019-06-17 2019-06-18 12:10:32.0 TEXAS PACIFIC LAND TRUST TPL HORIZON KINETICS ASSET MANAGEMENT LLC 10% owner 50 $718.96 $35,948.00 298,109 view
P 2019-06-14 2019-06-17 12:27:14.0 TEXAS PACIFIC LAND TRUST TPL HORIZON KINETICS ASSET MANAGEMENT LLC 10% owner 50 $739.99 $36,999.50 298,059 view
P 2019-06-13 2019-06-14 13:44:15.0 TEXAS PACIFIC LAND TRUST TPL HORIZON KINETICS ASSET MANAGEMENT LLC 10% owner 50 $726.13 $36,306.50 298,009 view
P 2019-06-12 2019-06-13 12:30:20.0 TEXAS PACIFIC LAND TRUST TPL HORIZON KINETICS ASSET MANAGEMENT LLC 10% owner 50 $744.22 $37,211.00 297,959 view
P 2019-06-11 2019-06-12 11:14:10.0 TEXAS PACIFIC LAND TRUST TPL HORIZON KINETICS ASSET MANAGEMENT LLC 10% owner 50 $771.11 $38,555.50 297,909 view
P 2019-06-10 2019-06-11 11:02:54.0 TEXAS PACIFIC LAND TRUST TPL HORIZON KINETICS ASSET MANAGEMENT LLC 10% owner 50 $764.77 $38,238.50 297,859 view
P 2019-06-07 2019-06-10 11:15:34.0 TEXAS PACIFIC LAND TRUST TPL HORIZON KINETICS ASSET MANAGEMENT LLC 10% owner 50 $749.91 $37,495.50 297,809 view
P 2019-06-06 2019-06-07 11:14:59.0 TEXAS PACIFIC LAND TRUST TPL HORIZON KINETICS ASSET MANAGEMENT LLC 10% owner 175 $740.80 $129,640.00 297,759 view
P 2019-06-05 2019-06-06 11:17:38.0 TEXAS PACIFIC LAND TRUST TPL HORIZON KINETICS ASSET MANAGEMENT LLC 10% owner 50 $730.07 $36,503.50 297,584 view
P 2019-06-04 2019-06-05 11:45:35.0 TEXAS PACIFIC LAND TRUST TPL HORIZON KINETICS ASSET MANAGEMENT LLC 10% owner 50 $732.78 $36,639.00 297,534 view
P 2019-06-03 2019-06-04 11:04:03.0 TEXAS PACIFIC LAND TRUST TPL HORIZON KINETICS ASSET MANAGEMENT LLC 10% owner 50 $738.78 $36,939.00 297,484 view
P 2019-05-31 2019-06-03 11:32:02.0 TEXAS PACIFIC LAND TRUST TPL HORIZON KINETICS ASSET MANAGEMENT LLC 10% owner 50 $752.07 $37,603.50 297,434 view
P 2019-05-30 2019-05-31 10:47:25.0 TEXAS PACIFIC LAND TRUST TPL HORIZON KINETICS ASSET MANAGEMENT LLC 10% owner 50 $799.00 $39,950.00 297,384 view
P 2019-05-29 2019-05-30 11:21:02.0 TEXAS PACIFIC LAND TRUST TPL HORIZON KINETICS ASSET MANAGEMENT LLC 10% owner 50 $813.21 $40,660.50 297,334 view
P 2019-05-28 2019-05-29 11:12:40.0 TEXAS PACIFIC LAND TRUST TPL HORIZON KINETICS ASSET MANAGEMENT LLC 10% owner 50 $790.32 $39,516.00 297,284 view
P 2019-05-24 2019-05-28 12:38:35.0 TEXAS PACIFIC LAND TRUST TPL HORIZON KINETICS ASSET MANAGEMENT LLC 10% owner 50 $790.09 $39,504.50 297,234 view
P 2019-05-23 2019-05-24 11:47:35.0 TEXAS PACIFIC LAND TRUST TPL HORIZON KINETICS ASSET MANAGEMENT LLC 10% owner 36 $792.09 $28,515.20 297,184 view
P 2019-05-22 2019-05-23 11:53:52.0 TEXAS PACIFIC LAND TRUST TPL HORIZON KINETICS ASSET MANAGEMENT LLC 10% owner 36 $831.23 $29,924.30 297,148 view
P 2019-05-21 2019-05-22 11:05:17.0 TEXAS PACIFIC LAND TRUST TPL HORIZON KINETICS ASSET MANAGEMENT LLC 10% owner 36 $849.48 $30,581.30 297,112 view
P 2019-05-20 2019-05-21 10:42:01.0 TEXAS PACIFIC LAND TRUST TPL HORIZON KINETICS ASSET MANAGEMENT LLC 10% owner 36 $860.09 $30,963.20 297,076 view
P 2019-05-17 2019-05-20 10:15:03.0 TEXAS PACIFIC LAND TRUST TPL HORIZON KINETICS ASSET MANAGEMENT LLC 10% owner 36 $845.42 $30,435.10 297,040 view
P 2019-05-16 2019-05-17 10:05:01.0 TEXAS PACIFIC LAND TRUST TPL HORIZON KINETICS ASSET MANAGEMENT LLC 10% owner 36 $842.57 $30,332.50 297,004 view
P 2019-05-15 2019-05-16 11:35:31.0 TEXAS PACIFIC LAND TRUST TPL HORIZON KINETICS ASSET MANAGEMENT LLC 10% owner 36 $837.84 $30,162.20 296,968 view
P 2019-05-14 2019-05-15 11:35:46.0 TEXAS PACIFIC LAND TRUST TPL HORIZON KINETICS ASSET MANAGEMENT LLC 10% owner 36 $805.73 $29,006.30 296,932 view
P 2019-05-13 2019-05-14 10:55:25.0 TEXAS PACIFIC LAND TRUST TPL HORIZON KINETICS ASSET MANAGEMENT LLC 10% owner 36 $787.20 $28,339.20 296,896 view
P 2019-05-10 2019-05-13 11:34:04.0 TEXAS PACIFIC LAND TRUST TPL HORIZON KINETICS ASSET MANAGEMENT LLC 10% owner 36 $780.78 $28,108.10 296,860 view
P 2019-05-09 2019-05-10 11:14:32.0 TEXAS PACIFIC LAND TRUST TPL HORIZON KINETICS ASSET MANAGEMENT LLC 10% owner 36 $779.99 $28,079.60 296,824 view
P 2019-05-08 2019-05-09 11:05:25.0 TEXAS PACIFIC LAND TRUST TPL HORIZON KINETICS ASSET MANAGEMENT LLC 10% owner 36 $799.98 $28,799.30 296,788 view
P 2019-05-07 2019-05-08 11:31:45.0 TEXAS PACIFIC LAND TRUST TPL HORIZON KINETICS ASSET MANAGEMENT LLC 10% owner 36 $781.21 $28,123.60 296,752 view
P 2019-05-06 2019-05-07 12:36:17.0 TEXAS PACIFIC LAND TRUST TPL HORIZON KINETICS ASSET MANAGEMENT LLC 10% owner 36 $807.23 $29,060.30 296,716 view
P 2019-05-03 2019-05-06 11:29:34.0 TEXAS PACIFIC LAND TRUST TPL KINETICS ASSET MANAGEMENT LLC various various various 10% owner 36 $807.20 $29,059.20 204,232 view
P 2019-05-02 2019-05-03 11:49:03.0 TEXAS PACIFIC LAND TRUST TPL KINETICS ASSET MANAGEMENT LLC various various various 10% owner 36 $819.99 $29,519.60 204,196 view
P 2019-05-01 2019-05-02 11:16:18.0 TEXAS PACIFIC LAND TRUST TPL KINETICS ASSET MANAGEMENT LLC various various various 10% owner 36 $806.68 $29,040.50 204,160 view
P 2019-04-30 2019-05-01 11:32:25.0 TEXAS PACIFIC LAND TRUST TPL KINETICS ASSET MANAGEMENT LLC various various various 10% owner 36 $809.65 $29,147.40 204,124 view
P 2019-04-29 2019-04-30 11:35:52.0 TEXAS PACIFIC LAND TRUST TPL KINETICS ASSET MANAGEMENT LLC various various various 10% owner 36 $837.93 $30,165.50 204,088 view
P 2019-04-26 2019-04-29 11:14:27.0 TEXAS PACIFIC LAND TRUST TPL KINETICS ASSET MANAGEMENT LLC various various various 10% owner 36 $879.00 $31,644.00 204,052 view
P 2019-04-25 2019-04-26 11:08:17.0 TEXAS PACIFIC LAND TRUST TPL KINETICS ASSET MANAGEMENT LLC various various various 10% owner 36 $897.25 $32,301.00 204,016 view
P 2019-04-24 2019-04-25 12:05:20.0 TEXAS PACIFIC LAND TRUST TPL KINETICS ASSET MANAGEMENT LLC various various various 10% owner 36 $899.87 $32,395.30 203,980 view
P 2019-04-23 2019-04-24 11:15:04.0 TEXAS PACIFIC LAND TRUST TPL KINETICS ASSET MANAGEMENT LLC various various various 10% owner 36 $898.87 $32,359.30 203,944 view
P 2019-04-22 2019-04-23 12:23:20.0 TEXAS PACIFIC LAND TRUST TPL KINETICS ASSET MANAGEMENT LLC various various various 10% owner 36 $896.07 $32,258.50 203,908 view
P 2019-04-18 2019-04-22 11:00:19.0 TEXAS PACIFIC LAND TRUST TPL KINETICS ASSET MANAGEMENT LLC various various various 10% owner 42 $899.92 $37,796.60 203,872 view
P 2019-04-17 2019-04-18 11:40:32.0 TEXAS PACIFIC LAND TRUST TPL KINETICS ASSET MANAGEMENT LLC various various various 10% owner 42 $887.23 $37,263.70 203,830 view
P 2019-04-16 2019-04-17 10:59:36.0 TEXAS PACIFIC LAND TRUST TPL KINETICS ASSET MANAGEMENT LLC various various various 10% owner 42 $898.49 $37,736.60 203,788 view
P 2019-04-15 2019-04-16 11:41:36.0 TEXAS PACIFIC LAND TRUST TPL KINETICS ASSET MANAGEMENT LLC various various various 10% owner 42 $903.05 $37,928.10 203,746 view
P 2019-04-12 2019-04-15 11:49:13.0 TEXAS PACIFIC LAND TRUST TPL KINETICS ASSET MANAGEMENT LLC various various various 10% owner 42 $903.52 $37,947.80 203,704 view
P 2019-04-11 2019-04-12 11:05:08.0 TEXAS PACIFIC LAND TRUST TPL KINETICS ASSET MANAGEMENT LLC various various various 10% owner 42 $911.07 $38,264.90 203,662 view
P 2019-04-10 2019-04-11 11:28:51.0 TEXAS PACIFIC LAND TRUST TPL KINETICS ASSET MANAGEMENT LLC various various various 10% owner 42 $874.06 $36,710.50 203,620 view
P 2019-04-09 2019-04-10 11:35:56.0 TEXAS PACIFIC LAND TRUST TPL KINETICS ASSET MANAGEMENT LLC various various 10% owner director 36 $821.55 $29,575.80 203,578 view
P 2019-04-08 2019-04-09 11:55:06.0 TEXAS PACIFIC LAND TRUST TPL KINETICS ASSET MANAGEMENT LLC various various various 10% owner 7 $814.50 $5,701.50 203,542 view
P 2019-04-05 2019-04-08 11:04:02.0 TEXAS PACIFIC LAND TRUST TPL KINETICS ASSET MANAGEMENT LLC various various various 10% owner 42 $792.27 $33,275.30 203,535 view
P 2019-04-03 2019-04-04 11:42:38.0 TEXAS PACIFIC LAND TRUST TPL KINETICS ASSET MANAGEMENT LLC various various various 10% owner 42 $797.88 $33,511.00 201,977 view
P 2019-04-02 2019-04-03 11:50:38.0 TEXAS PACIFIC LAND TRUST TPL KINETICS ASSET MANAGEMENT LLC various various various 10% owner 42 $801.16 $33,648.70 201,935 view
P 2019-04-01 2019-04-02 11:32:10.0 TEXAS PACIFIC LAND TRUST TPL KINETICS ASSET MANAGEMENT LLC various various various 10% owner 42 $784.30 $32,940.60 201,893 view
P 2019-03-29 2019-04-01 11:49:03.0 TEXAS PACIFIC LAND TRUST TPL KINETICS ASSET MANAGEMENT LLC various various various 10% owner 42 $773.48 $32,486.20 201,851 view
P 2019-03-28 2019-03-29 11:56:39.0 TEXAS PACIFIC LAND TRUST TPL KINETICS ASSET MANAGEMENT LLC various various various 10% owner 7 $774.83 $5,423.81 201,809 view
P 2019-03-27 2019-03-28 11:58:47.0 TEXAS PACIFIC LAND TRUST TPL KINETICS ASSET MANAGEMENT LLC various various various 10% owner 42 $774.38 $32,524.00 201,802 view
P 2019-03-26 2019-03-27 11:34:02.0 TEXAS PACIFIC LAND TRUST TPL KINETICS ASSET MANAGEMENT LLC various various various 10% owner 42 $764.28 $32,099.80 201,760 view
P 2019-03-25 2019-03-26 13:24:27.0 TEXAS PACIFIC LAND TRUST TPL KINETICS ASSET MANAGEMENT LLC various various various 10% owner 42 $725.36 $30,465.10 201,718 view
P 2019-03-22 2019-03-25 11:57:40.0 TEXAS PACIFIC LAND TRUST TPL KINETICS ASSET MANAGEMENT LLC various various various 10% owner 42 $751.10 $31,546.20 201,676 view
P 2019-03-21 2019-03-22 12:32:07.0 TEXAS PACIFIC LAND TRUST TPL KINETICS ASSET MANAGEMENT LLC various various various 10% owner 42 $767.89 $32,251.40 201,634 view
P 2019-03-20 2019-03-21 16:34:03.0 TEXAS PACIFIC LAND TRUST TPL KINETICS ASSET MANAGEMENT LLC various various various 10% owner 42 $765.98 $32,171.20 201,592 view
P 2019-03-19 2019-03-20 12:29:26.0 TEXAS PACIFIC LAND TRUST TPL KINETICS ASSET MANAGEMENT LLC various various various 10% owner 42 $760.69 $31,949.00 201,550 view
P 2019-03-18 2019-03-19 12:37:48.0 TEXAS PACIFIC LAND TRUST TPL KINETICS ASSET MANAGEMENT LLC various various various 10% owner 42 $741.16 $31,128.60 201,508 view
P 2019-03-15 2019-03-18 16:42:01.0 TEXAS PACIFIC LAND TRUST TPL KINETICS ASSET MANAGEMENT LLC various various various 10% owner 42 $748.14 $31,421.90 201,466 view
P 2018-12-26 2018-12-27 16:11:29.0 TEXAS PACIFIC LAND TRUST TPL Barry David E. other 100 $467.06 $46,705.90 300 view
P 2018-12-04 2018-12-06 16:17:34.0 TEXAS PACIFIC LAND TRUST TPL Packer Robert J CFO 100 $589.00 $58,900.00 200 view
P 2018-12-04 2018-12-06 16:16:25.0 TEXAS PACIFIC LAND TRUST TPL GLOVER TYLER officer (Co-General Agent) 100 $598.00 $59,800.00 100 view
S 2018-11-19 2018-11-21 12:57:42.0 TEXAS PACIFIC LAND TRUST TPL Meyer Maurice III other 500 $607.26 $303,630.00 60,546 view
S 2018-11-15 2018-11-16 16:46:24.0 TEXAS PACIFIC LAND TRUST TPL Meyer Maurice III other 500 $570.00 $285,000.00 61,046 view
S 2018-11-14 2018-11-16 16:46:24.0 TEXAS PACIFIC LAND TRUST TPL Meyer Maurice III other 500 $576.19 $288,095.00 61,546 view
P 2018-10-11 2018-10-12 16:07:09.0 TEXAS PACIFIC LAND TRUST TPL Barry David E. director other 100 $810.00 $81,000.00 200 view
S 2018-10-03 2018-10-04 16:42:53.0 TEXAS PACIFIC LAND TRUST TPL Meyer Maurice III other 109 $874.00 $95,266.00 62,046 view
S 2018-09-26 2018-09-28 16:16:05.0 TEXAS PACIFIC LAND TRUST TPL Meyer Maurice III other 400 $856.00 $342,400.00 62,155 view
S 2018-09-26 2018-09-28 16:16:05.0 TEXAS PACIFIC LAND TRUST TPL Meyer Maurice III other 600 $864.00 $518,400.00 62,555 view
S 2018-09-12 2018-09-14 16:50:21.0 TEXAS PACIFIC LAND TRUST TPL Meyer Maurice III other 500 $835.00 $417,500.00 63,220 view
S 2018-08-27 2018-08-27 16:10:51.0 TEXAS PACIFIC LAND TRUST TPL Meyer Maurice III other 500 $853.00 $426,500.00 63,720 view
S 2018-08-27 2018-08-27 16:10:51.0 TEXAS PACIFIC LAND TRUST TPL Meyer Maurice III other 500 $855.26 $427,632.00 64,220 view
P 2017-03-03 2017-03-06 16:53:38.0 TEXAS PACIFIC LAND TRUST TPL Barry David E. other 100 $292.00 $29,200.00 100 N/A view
P 2017-03-03 2017-03-03 16:24:43.0 TEXAS PACIFIC LAND TRUST TPL Packer Robert J CFO 100 $293.76 $29,376.00 100 N/A view
P 2015-02-03 2015-02-04 10:44:05.0 TEXAS PACIFIC LAND TRUST TPL Norwood James K other 200 $122.72 $24,545.00 1,600 16.28% view
P 2014-12-12 2014-12-15 16:10:45.0 TEXAS PACIFIC LAND TRUST TPL PETERSON DAVID M officer (General Agent) 17 $111.33 $1,892.61 50 3.43% view
P 2014-11-05 2014-11-06 16:14:06.0 TEXAS PACIFIC LAND TRUST TPL PETERSON DAVID M officer (General Agent and CFO) 33 $145.95 $4,816.35 33 -0.73% view
P 2011-12-20 2011-12-22 12:41:24.0 TEXAS PACIFIC LAND TRUST TPL Norwood James K other 100 $41.75 $4,175.00 600 2.20% view
P 2008-10-08 2009-03-04 09:41:06.0 TEXAS PACIFIC LAND TRUST TPL Norwood James K other 300 $26.30 $7,890.00 500 4.94% view
P 2008-10-06 2008-10-08 16:09:32.0 TEXAS PACIFIC LAND TRUST TPL Thomas Roy CEO 500 $33.75 $16,875.00 1,000 -16.53% view
P 2005-10-21 2005-10-25 16:12:03.0 TEXAS PACIFIC LAND TRUST TPL Meyer Maurice III other 100 $119.20 $11,920.00 15,050 25.84% view
* An * after P or S in the Buy/Sell column means the transaction was filed by the insider as open market, but it was marked as private transaction by insidercow's proprietary method
Enter Another Stock Symbol: